sensor_id;sensor_type;location;lat;lon;timestamp;P1;durP1;ratioP1;P2;durP2;ratioP2
8893;SDS011;4483;48.622;9.230;2023-06-22T00:02:01;7.03;;;5.45;;
8893;SDS011;4483;48.622;9.230;2023-06-22T00:04:28;5.60;;;5.05;;
8893;SDS011;4483;48.622;9.230;2023-06-22T00:06:54;6.22;;;4.95;;
8893;SDS011;4483;48.622;9.230;2023-06-22T00:09:21;6.10;;;4.93;;
8893;SDS011;4483;48.622;9.230;2023-06-22T00:11:47;6.68;;;4.45;;
8893;SDS011;4483;48.622;9.230;2023-06-22T00:14:14;7.40;;;5.38;;
8893;SDS011;4483;48.622;9.230;2023-06-22T00:16:41;6.25;;;5.18;;
8893;SDS011;4483;48.622;9.230;2023-06-22T00:19:09;7.25;;;5.15;;
8893;SDS011;4483;48.622;9.230;2023-06-22T00:21:37;6.03;;;5.40;;
8893;SDS011;4483;48.622;9.230;2023-06-22T00:24:04;6.10;;;5.00;;
8893;SDS011;4483;48.622;9.230;2023-06-22T00:26:32;7.15;;;5.43;;
8893;SDS011;4483;48.622;9.230;2023-06-22T00:28:58;7.30;;;5.35;;
8893;SDS011;4483;48.622;9.230;2023-06-22T00:31:25;5.38;;;4.88;;
8893;SDS011;4483;48.622;9.230;2023-06-22T00:33:52;7.97;;;5.60;;
8893;SDS011;4483;48.622;9.230;2023-06-22T00:36:20;5.28;;;4.88;;
8893;SDS011;4483;48.622;9.230;2023-06-22T00:38:46;5.85;;;5.07;;
8893;SDS011;4483;48.622;9.230;2023-06-22T00:41:15;7.85;;;4.88;;
8893;SDS011;4483;48.622;9.230;2023-06-22T00:43:42;6.75;;;5.65;;
8893;SDS011;4483;48.622;9.230;2023-06-22T00:46:09;7.72;;;5.38;;
8893;SDS011;4483;48.622;9.230;2023-06-22T00:48:35;7.70;;;4.72;;
8893;SDS011;4483;48.622;9.230;2023-06-22T00:51:02;5.35;;;4.95;;
8893;SDS011;4483;48.622;9.230;2023-06-22T00:53:31;5.70;;;5.00;;
8893;SDS011;4483;48.622;9.230;2023-06-22T00:56:00;7.05;;;4.85;;
8893;SDS011;4483;48.622;9.230;2023-06-22T00:58:28;5.05;;;4.65;;
8893;SDS011;4483;48.622;9.230;2023-06-22T01:00:55;6.95;;;5.50;;
8893;SDS011;4483;48.622;9.230;2023-06-22T01:03:22;7.03;;;5.35;;
8893;SDS011;4483;48.622;9.230;2023-06-22T01:05:49;8.57;;;4.53;;
8893;SDS011;4483;48.622;9.230;2023-06-22T01:08:18;5.55;;;5.05;;
8893;SDS011;4483;48.622;9.230;2023-06-22T01:10:59;5.63;;;5.05;;
8893;SDS011;4483;48.622;9.230;2023-06-22T01:13:32;6.57;;;5.22;;
8893;SDS011;4483;48.622;9.230;2023-06-22T01:16:05;7.15;;;5.32;;
8893;SDS011;4483;48.622;9.230;2023-06-22T01:18:36;8.57;;;4.97;;
8893;SDS011;4483;48.622;9.230;2023-06-22T01:21:06;6.40;;;5.25;;
8893;SDS011;4483;48.622;9.230;2023-06-22T01:23:41;5.55;;;5.05;;
8893;SDS011;4483;48.622;9.230;2023-06-22T01:26:28;6.65;;;5.60;;
8893;SDS011;4483;48.622;9.230;2023-06-22T01:29:05;5.22;;;4.82;;
8893;SDS011;4483;48.622;9.230;2023-06-22T01:31:33;8.63;;;5.10;;
8893;SDS011;4483;48.622;9.230;2023-06-22T01:34:01;5.47;;;4.97;;
8893;SDS011;4483;48.622;9.230;2023-06-22T01:36:31;7.18;;;5.45;;
8893;SDS011;4483;48.622;9.230;2023-06-22T01:38:59;9.35;;;5.35;;
8893;SDS011;4483;48.622;9.230;2023-06-22T01:41:29;5.93;;;5.03;;
8893;SDS011;4483;48.622;9.230;2023-06-22T01:43:57;5.90;;;5.07;;
8893;SDS011;4483;48.622;9.230;2023-06-22T01:46:27;6.60;;;5.28;;
8893;SDS011;4483;48.622;9.230;2023-06-22T01:48:53;5.80;;;5.20;;
8893;SDS011;4483;48.622;9.230;2023-06-22T01:51:21;5.65;;;5.15;;
8893;SDS011;4483;48.622;9.230;2023-06-22T01:53:48;9.40;;;5.15;;
8893;SDS011;4483;48.622;9.230;2023-06-22T01:56:15;6.60;;;5.47;;
8893;SDS011;4483;48.622;9.230;2023-06-22T01:58:45;7.78;;;5.20;;
8893;SDS011;4483;48.622;9.230;2023-06-22T02:01:15;6.20;;;5.43;;
8893;SDS011;4483;48.622;9.230;2023-06-22T02:03:55;5.38;;;4.97;;
8893;SDS011;4483;48.622;9.230;2023-06-22T02:06:30;9.70;;;6.05;;
8893;SDS011;4483;48.622;9.230;2023-06-22T02:09:02;5.85;;;5.25;;
8893;SDS011;4483;48.622;9.230;2023-06-22T02:11:35;6.20;;;5.10;;
8893;SDS011;4483;48.622;9.230;2023-06-22T02:14:03;9.32;;;5.82;;
8893;SDS011;4483;48.622;9.230;2023-06-22T02:16:31;6.05;;;5.45;;
8893;SDS011;4483;48.622;9.230;2023-06-22T02:19:00;5.90;;;5.07;;
8893;SDS011;4483;48.622;9.230;2023-06-22T02:21:29;7.22;;;4.88;;
8893;SDS011;4483;48.622;9.230;2023-06-22T02:23:56;6.38;;;5.05;;
8893;SDS011;4483;48.622;9.230;2023-06-22T02:26:22;5.38;;;4.88;;
8893;SDS011;4483;48.622;9.230;2023-06-22T02:28:51;4.90;;;4.45;;
8893;SDS011;4483;48.622;9.230;2023-06-22T02:31:18;7.85;;;5.30;;
8893;SDS011;4483;48.622;9.230;2023-06-22T02:33:45;5.45;;;4.93;;
8893;SDS011;4483;48.622;9.230;2023-06-22T02:36:14;5.78;;;5.10;;
8893;SDS011;4483;48.622;9.230;2023-06-22T02:38:41;7.78;;;5.05;;
8893;SDS011;4483;48.622;9.230;2023-06-22T02:41:13;6.13;;;4.72;;
8893;SDS011;4483;48.622;9.230;2023-06-22T02:43:43;7.40;;;4.88;;
8893;SDS011;4483;48.622;9.230;2023-06-22T02:46:10;6.03;;;5.00;;
8893;SDS011;4483;48.622;9.230;2023-06-22T02:48:38;5.35;;;4.80;;
8893;SDS011;4483;48.622;9.230;2023-06-22T02:51:04;6.25;;;5.13;;
8893;SDS011;4483;48.622;9.230;2023-06-22T02:53:33;7.30;;;5.40;;
8893;SDS011;4483;48.622;9.230;2023-06-22T02:56:00;5.40;;;4.90;;
8893;SDS011;4483;48.622;9.230;2023-06-22T02:58:27;8.05;;;5.05;;
8893;SDS011;4483;48.622;9.230;2023-06-22T03:00:53;5.93;;;5.43;;
8893;SDS011;4483;48.622;9.230;2023-06-22T03:03:20;5.47;;;4.90;;
8893;SDS011;4483;48.622;9.230;2023-06-22T03:05:47;7.35;;;4.53;;
8893;SDS011;4483;48.622;9.230;2023-06-22T03:08:13;8.38;;;5.22;;
8893;SDS011;4483;48.622;9.230;2023-06-22T03:10:41;8.55;;;5.07;;
8893;SDS011;4483;48.622;9.230;2023-06-22T03:13:08;10.38;;;5.20;;
8893;SDS011;4483;48.622;9.230;2023-06-22T03:15:35;8.45;;;4.70;;
8893;SDS011;4483;48.622;9.230;2023-06-22T03:18:01;5.45;;;4.97;;
8893;SDS011;4483;48.622;9.230;2023-06-22T03:20:28;9.77;;;4.65;;
8893;SDS011;4483;48.622;9.230;2023-06-22T03:22:58;5.93;;;4.82;;
8893;SDS011;4483;48.622;9.230;2023-06-22T03:25:25;8.65;;;5.22;;
8893;SDS011;4483;48.622;9.230;2023-06-22T03:27:53;7.85;;;5.00;;
8893;SDS011;4483;48.622;9.230;2023-06-22T03:30:20;6.32;;;4.43;;
8893;SDS011;4483;48.622;9.230;2023-06-22T03:32:46;7.38;;;5.13;;
8893;SDS011;4483;48.622;9.230;2023-06-22T03:35:13;8.95;;;4.90;;
8893;SDS011;4483;48.622;9.230;2023-06-22T03:37:40;6.90;;;4.97;;
8893;SDS011;4483;48.622;9.230;2023-06-22T03:40:07;6.50;;;5.30;;
8893;SDS011;4483;48.622;9.230;2023-06-22T03:42:34;7.05;;;4.35;;
8893;SDS011;4483;48.622;9.230;2023-06-22T03:45:02;6.38;;;4.82;;
8893;SDS011;4483;48.622;9.230;2023-06-22T03:47:29;5.20;;;4.70;;
8893;SDS011;4483;48.622;9.230;2023-06-22T03:49:56;9.27;;;5.32;;
8893;SDS011;4483;48.622;9.230;2023-06-22T03:52:23;7.57;;;5.07;;
8893;SDS011;4483;48.622;9.230;2023-06-22T03:54:50;8.95;;;5.45;;
8893;SDS011;4483;48.622;9.230;2023-06-22T03:57:17;5.55;;;4.57;;
8893;SDS011;4483;48.622;9.230;2023-06-22T03:59:43;6.70;;;4.78;;
8893;SDS011;4483;48.622;9.230;2023-06-22T04:02:12;5.22;;;4.72;;
8893;SDS011;4483;48.622;9.230;2023-06-22T04:04:38;5.60;;;4.65;;
8893;SDS011;4483;48.622;9.230;2023-06-22T04:07:05;5.82;;;4.60;;
8893;SDS011;4483;48.622;9.230;2023-06-22T04:09:32;9.93;;;4.43;;
8893;SDS011;4483;48.622;9.230;2023-06-22T04:11:59;6.10;;;5.20;;
8893;SDS011;4483;48.622;9.230;2023-06-22T04:14:27;5.40;;;4.70;;
8893;SDS011;4483;48.622;9.230;2023-06-22T04:16:53;11.52;;;4.40;;
8893;SDS011;4483;48.622;9.230;2023-06-22T04:19:21;5.25;;;4.20;;
8893;SDS011;4483;48.622;9.230;2023-06-22T04:21:48;5.60;;;5.00;;
8893;SDS011;4483;48.622;9.230;2023-06-22T04:24:15;5.47;;;4.63;;
8893;SDS011;4483;48.622;9.230;2023-06-22T04:26:42;5.10;;;4.40;;
8893;SDS011;4483;48.622;9.230;2023-06-22T04:29:10;5.75;;;4.60;;
8893;SDS011;4483;48.622;9.230;2023-06-22T04:31:37;6.45;;;4.85;;
8893;SDS011;4483;48.622;9.230;2023-06-22T04:34:05;5.28;;;4.38;;
8893;SDS011;4483;48.622;9.230;2023-06-22T04:36:41;5.68;;;4.63;;
8893;SDS011;4483;48.622;9.230;2023-06-22T04:39:08;7.22;;;4.63;;
8893;SDS011;4483;48.622;9.230;2023-06-22T04:41:35;5.78;;;4.47;;
8893;SDS011;4483;48.622;9.230;2023-06-22T04:44:11;7.20;;;5.38;;
8893;SDS011;4483;48.622;9.230;2023-06-22T04:46:38;5.63;;;4.80;;
8893;SDS011;4483;48.622;9.230;2023-06-22T04:49:05;5.40;;;4.85;;
8893;SDS011;4483;48.622;9.230;2023-06-22T04:51:41;8.02;;;5.30;;
8893;SDS011;4483;48.622;9.230;2023-06-22T04:54:08;5.32;;;4.63;;
8893;SDS011;4483;48.622;9.230;2023-06-22T04:56:35;5.57;;;4.47;;
8893;SDS011;4483;48.622;9.230;2023-06-22T04:59:02;6.70;;;5.38;;
8893;SDS011;4483;48.622;9.230;2023-06-22T05:01:29;4.85;;;4.32;;
8893;SDS011;4483;48.622;9.230;2023-06-22T05:03:57;6.40;;;5.03;;
8893;SDS011;4483;48.622;9.230;2023-06-22T05:06:26;6.95;;;5.10;;
8893;SDS011;4483;48.622;9.230;2023-06-22T05:08:55;5.35;;;4.60;;
8893;SDS011;4483;48.622;9.230;2023-06-22T05:11:23;5.70;;;5.13;;
8893;SDS011;4483;48.622;9.230;2023-06-22T05:13:50;5.00;;;4.60;;
8893;SDS011;4483;48.622;9.230;2023-06-22T05:16:17;10.55;;;6.00;;
8893;SDS011;4483;48.622;9.230;2023-06-22T05:18:49;5.13;;;4.72;;
8893;SDS011;4483;48.622;9.230;2023-06-22T05:21:18;6.30;;;4.60;;
8893;SDS011;4483;48.622;9.230;2023-06-22T05:23:45;7.45;;;6.45;;
8893;SDS011;4483;48.622;9.230;2023-06-22T05:26:13;8.15;;;6.65;;
8893;SDS011;4483;48.622;9.230;2023-06-22T05:28:41;9.73;;;6.45;;
8893;SDS011;4483;48.622;9.230;2023-06-22T05:31:11;8.27;;;6.78;;
8893;SDS011;4483;48.622;9.230;2023-06-22T05:33:37;8.02;;;6.47;;
8893;SDS011;4483;48.622;9.230;2023-06-22T05:36:04;10.10;;;6.95;;
8893;SDS011;4483;48.622;9.230;2023-06-22T05:38:32;8.20;;;6.15;;
8893;SDS011;4483;48.622;9.230;2023-06-22T05:40:59;8.43;;;6.03;;
8893;SDS011;4483;48.622;9.230;2023-06-22T05:43:27;8.93;;;6.00;;
8893;SDS011;4483;48.622;9.230;2023-06-22T05:45:53;7.88;;;6.15;;
8893;SDS011;4483;48.622;9.230;2023-06-22T05:48:20;5.82;;;5.15;;
8893;SDS011;4483;48.622;9.230;2023-06-22T05:50:47;6.72;;;5.07;;
8893;SDS011;4483;48.622;9.230;2023-06-22T05:53:13;6.75;;;4.70;;
8893;SDS011;4483;48.622;9.230;2023-06-22T05:55:40;5.80;;;4.80;;
8893;SDS011;4483;48.622;9.230;2023-06-22T05:58:07;4.95;;;4.45;;
8893;SDS011;4483;48.622;9.230;2023-06-22T06:00:36;6.93;;;5.65;;
8893;SDS011;4483;48.622;9.230;2023-06-22T06:03:03;7.88;;;4.95;;
8893;SDS011;4483;48.622;9.230;2023-06-22T06:05:29;6.85;;;4.70;;
8893;SDS011;4483;48.622;9.230;2023-06-22T06:07:56;7.13;;;4.90;;
8893;SDS011;4483;48.622;9.230;2023-06-22T06:10:23;5.43;;;4.93;;
8893;SDS011;4483;48.622;9.230;2023-06-22T06:12:50;7.35;;;4.63;;
8893;SDS011;4483;48.622;9.230;2023-06-22T06:15:16;7.32;;;4.53;;
8893;SDS011;4483;48.622;9.230;2023-06-22T06:17:48;10.50;;;4.65;;
8893;SDS011;4483;48.622;9.230;2023-06-22T06:20:18;5.70;;;4.40;;
8893;SDS011;4483;48.622;9.230;2023-06-22T06:22:45;11.45;;;4.78;;
8893;SDS011;4483;48.622;9.230;2023-06-22T06:25:12;8.18;;;4.43;;
8893;SDS011;4483;48.622;9.230;2023-06-22T06:27:41;6.28;;;4.15;;
8893;SDS011;4483;48.622;9.230;2023-06-22T06:30:08;9.32;;;4.40;;
8893;SDS011;4483;48.622;9.230;2023-06-22T06:32:35;5.68;;;4.43;;
8893;SDS011;4483;48.622;9.230;2023-06-22T06:35:04;7.10;;;4.47;;
8893;SDS011;4483;48.622;9.230;2023-06-22T06:37:33;6.60;;;4.35;;
8893;SDS011;4483;48.622;9.230;2023-06-22T06:40:02;8.75;;;4.40;;
8893;SDS011;4483;48.622;9.230;2023-06-22T06:42:30;9.25;;;4.68;;
8893;SDS011;4483;48.622;9.230;2023-06-22T06:44:56;6.90;;;4.18;;
8893;SDS011;4483;48.622;9.230;2023-06-22T06:47:23;7.45;;;3.95;;
8893;SDS011;4483;48.622;9.230;2023-06-22T06:49:50;5.10;;;4.00;;
8893;SDS011;4483;48.622;9.230;2023-06-22T06:52:18;8.48;;;3.83;;
8893;SDS011;4483;48.622;9.230;2023-06-22T06:54:45;5.30;;;3.72;;
8893;SDS011;4483;48.622;9.230;2023-06-22T06:57:11;4.65;;;3.90;;
8893;SDS011;4483;48.622;9.230;2023-06-22T06:59:40;4.53;;;3.75;;
8893;SDS011;4483;48.622;9.230;2023-06-22T07:02:06;6.38;;;4.13;;
8893;SDS011;4483;48.622;9.230;2023-06-22T07:04:33;4.78;;;4.35;;
8893;SDS011;4483;48.622;9.230;2023-06-22T07:07:00;9.75;;;4.15;;
8893;SDS011;4483;48.622;9.230;2023-06-22T07:09:29;9.90;;;4.00;;
8893;SDS011;4483;48.622;9.230;2023-06-22T07:11:56;5.85;;;3.97;;
8893;SDS011;4483;48.622;9.230;2023-06-22T07:14:23;6.95;;;3.78;;
8893;SDS011;4483;48.622;9.230;2023-06-22T07:16:49;6.32;;;3.80;;
8893;SDS011;4483;48.622;9.230;2023-06-22T07:19:16;6.65;;;3.70;;
8893;SDS011;4483;48.622;9.230;2023-06-22T07:21:50;5.75;;;3.80;;
8893;SDS011;4483;48.622;9.230;2023-06-22T07:24:17;4.65;;;3.90;;
8893;SDS011;4483;48.622;9.230;2023-06-22T07:26:46;7.72;;;3.92;;
8893;SDS011;4483;48.622;9.230;2023-06-22T07:29:13;5.38;;;3.78;;
8893;SDS011;4483;48.622;9.230;2023-06-22T07:31:40;8.48;;;4.30;;
8893;SDS011;4483;48.622;9.230;2023-06-22T07:34:06;6.85;;;4.25;;
8893;SDS011;4483;48.622;9.230;2023-06-22T07:36:33;4.18;;;3.47;;
8893;SDS011;4483;48.622;9.230;2023-06-22T07:39:00;5.43;;;3.83;;
8893;SDS011;4483;48.622;9.230;2023-06-22T07:41:27;5.65;;;3.20;;
8893;SDS011;4483;48.622;9.230;2023-06-22T07:43:55;6.00;;;3.88;;
8893;SDS011;4483;48.622;9.230;2023-06-22T07:46:22;8.70;;;3.95;;
8893;SDS011;4483;48.622;9.230;2023-06-22T07:48:49;5.20;;;3.95;;
8893;SDS011;4483;48.622;9.230;2023-06-22T07:51:16;7.63;;;3.88;;
8893;SDS011;4483;48.622;9.230;2023-06-22T07:53:43;6.80;;;3.72;;
8893;SDS011;4483;48.622;9.230;2023-06-22T07:56:10;7.05;;;4.28;;
8893;SDS011;4483;48.622;9.230;2023-06-22T07:58:37;6.35;;;3.65;;
8893;SDS011;4483;48.622;9.230;2023-06-22T08:01:05;5.15;;;3.85;;
8893;SDS011;4483;48.622;9.230;2023-06-22T08:03:32;11.05;;;4.32;;
8893;SDS011;4483;48.622;9.230;2023-06-22T08:05:58;8.30;;;4.18;;
8893;SDS011;4483;48.622;9.230;2023-06-22T08:08:25;5.82;;;4.43;;
8893;SDS011;4483;48.622;9.230;2023-06-22T08:10:52;5.25;;;3.83;;
8893;SDS011;4483;48.622;9.230;2023-06-22T08:13:18;9.88;;;4.70;;
8893;SDS011;4483;48.622;9.230;2023-06-22T08:15:45;6.40;;;4.32;;
8893;SDS011;4483;48.622;9.230;2023-06-22T08:18:13;8.00;;;4.43;;
8893;SDS011;4483;48.622;9.230;2023-06-22T08:20:41;7.75;;;4.25;;
8893;SDS011;4483;48.622;9.230;2023-06-22T08:23:08;9.27;;;4.38;;
8893;SDS011;4483;48.622;9.230;2023-06-22T08:25:34;7.03;;;4.70;;
8893;SDS011;4483;48.622;9.230;2023-06-22T08:28:02;12.30;;;4.80;;
8893;SDS011;4483;48.622;9.230;2023-06-22T08:30:29;4.80;;;4.32;;
8893;SDS011;4483;48.622;9.230;2023-06-22T08:32:56;6.57;;;3.80;;
8893;SDS011;4483;48.622;9.230;2023-06-22T08:35:24;10.38;;;4.35;;
8893;SDS011;4483;48.622;9.230;2023-06-22T08:37:51;7.15;;;4.20;;
8893;SDS011;4483;48.622;9.230;2023-06-22T08:40:19;8.20;;;4.15;;
8893;SDS011;4483;48.622;9.230;2023-06-22T08:42:46;8.20;;;3.92;;
8893;SDS011;4483;48.622;9.230;2023-06-22T08:45:13;4.68;;;4.20;;
8893;SDS011;4483;48.622;9.230;2023-06-22T08:47:41;7.82;;;4.18;;
8893;SDS011;4483;48.622;9.230;2023-06-22T08:50:08;6.90;;;4.03;;
8893;SDS011;4483;48.622;9.230;2023-06-22T08:52:36;6.05;;;4.20;;
8893;SDS011;4483;48.622;9.230;2023-06-22T08:55:06;7.30;;;4.60;;
8893;SDS011;4483;48.622;9.230;2023-06-22T08:57:33;10.43;;;4.80;;
8893;SDS011;4483;48.622;9.230;2023-06-22T09:00:02;9.95;;;4.80;;
8893;SDS011;4483;48.622;9.230;2023-06-22T09:02:36;7.97;;;4.55;;
8893;SDS011;4483;48.622;9.230;2023-06-22T09:05:05;8.00;;;4.28;;
8893;SDS011;4483;48.622;9.230;2023-06-22T09:07:32;8.38;;;4.63;;
8893;SDS011;4483;48.622;9.230;2023-06-22T09:10:01;8.65;;;4.38;;
8893;SDS011;4483;48.622;9.230;2023-06-22T09:12:29;8.20;;;4.65;;
8893;SDS011;4483;48.622;9.230;2023-06-22T09:14:57;10.02;;;4.57;;
8893;SDS011;4483;48.622;9.230;2023-06-22T09:17:25;5.88;;;4.32;;
8893;SDS011;4483;48.622;9.230;2023-06-22T09:19:52;9.90;;;4.18;;
8893;SDS011;4483;48.622;9.230;2023-06-22T09:22:19;12.07;;;4.47;;
8893;SDS011;4483;48.622;9.230;2023-06-22T09:24:45;8.35;;;4.68;;
8893;SDS011;4483;48.622;9.230;2023-06-22T09:27:14;8.25;;;4.82;;
8893;SDS011;4483;48.622;9.230;2023-06-22T09:29:40;9.07;;;4.88;;
8893;SDS011;4483;48.622;9.230;2023-06-22T09:32:07;8.32;;;4.68;;
8893;SDS011;4483;48.622;9.230;2023-06-22T09:34:34;13.45;;;5.20;;
8893;SDS011;4483;48.622;9.230;2023-06-22T09:37:00;7.47;;;4.32;;
8893;SDS011;4483;48.622;9.230;2023-06-22T09:39:27;8.75;;;4.55;;
8893;SDS011;4483;48.622;9.230;2023-06-22T09:41:53;5.93;;;4.15;;
8893;SDS011;4483;48.622;9.230;2023-06-22T09:44:21;6.28;;;4.60;;
8893;SDS011;4483;48.622;9.230;2023-06-22T09:46:48;7.63;;;5.00;;
8893;SDS011;4483;48.622;9.230;2023-06-22T09:49:15;7.50;;;4.50;;
8893;SDS011;4483;48.622;9.230;2023-06-22T09:51:42;8.98;;;4.97;;
8893;SDS011;4483;48.622;9.230;2023-06-22T09:54:08;7.80;;;4.95;;
8893;SDS011;4483;48.622;9.230;2023-06-22T09:56:35;7.90;;;4.28;;
8893;SDS011;4483;48.622;9.230;2023-06-22T09:59:02;9.50;;;4.60;;
8893;SDS011;4483;48.622;9.230;2023-06-22T10:01:31;7.78;;;4.53;;
8893;SDS011;4483;48.622;9.230;2023-06-22T10:03:57;7.82;;;4.53;;
8893;SDS011;4483;48.622;9.230;2023-06-22T10:06:24;12.27;;;4.65;;
8893;SDS011;4483;48.622;9.230;2023-06-22T10:08:51;7.72;;;5.00;;
8893;SDS011;4483;48.622;9.230;2023-06-22T10:11:17;11.02;;;5.10;;
8893;SDS011;4483;48.622;9.230;2023-06-22T10:13:44;11.48;;;4.78;;
8893;SDS011;4483;48.622;9.230;2023-06-22T10:16:11;11.73;;;5.50;;
8893;SDS011;4483;48.622;9.230;2023-06-22T10:18:39;7.93;;;5.10;;
8893;SDS011;4483;48.622;9.230;2023-06-22T10:21:05;6.00;;;4.75;;
8893;SDS011;4483;48.622;9.230;2023-06-22T10:23:32;8.02;;;5.55;;
8893;SDS011;4483;48.622;9.230;2023-06-22T10:25:58;6.72;;;4.63;;
8893;SDS011;4483;48.622;9.230;2023-06-22T10:28:25;7.60;;;4.75;;
8893;SDS011;4483;48.622;9.230;2023-06-22T10:30:52;8.52;;;4.80;;
8893;SDS011;4483;48.622;9.230;2023-06-22T10:33:19;10.85;;;5.22;;
8893;SDS011;4483;48.622;9.230;2023-06-22T10:35:47;6.95;;;4.95;;
8893;SDS011;4483;48.622;9.230;2023-06-22T10:38:14;9.50;;;5.00;;
8893;SDS011;4483;48.622;9.230;2023-06-22T10:40:40;8.00;;;4.88;;
8893;SDS011;4483;48.622;9.230;2023-06-22T10:43:07;10.23;;;4.78;;
8893;SDS011;4483;48.622;9.230;2023-06-22T10:45:33;6.18;;;4.43;;
8893;SDS011;4483;48.622;9.230;2023-06-22T10:48:00;8.73;;;4.65;;
8893;SDS011;4483;48.622;9.230;2023-06-22T10:50:27;8.98;;;4.88;;
8893;SDS011;4483;48.622;9.230;2023-06-22T10:52:55;10.43;;;4.97;;
8893;SDS011;4483;48.622;9.230;2023-06-22T10:55:21;8.85;;;4.88;;
8893;SDS011;4483;48.622;9.230;2023-06-22T10:57:48;8.60;;;4.80;;
8893;SDS011;4483;48.622;9.230;2023-06-22T11:00:15;9.95;;;4.60;;
8893;SDS011;4483;48.622;9.230;2023-06-22T11:02:42;8.57;;;5.00;;
8893;SDS011;4483;48.622;9.230;2023-06-22T11:05:08;9.32;;;5.00;;
8893;SDS011;4483;48.622;9.230;2023-06-22T11:07:36;6.38;;;4.30;;
8893;SDS011;4483;48.622;9.230;2023-06-22T11:10:05;9.85;;;4.95;;
8893;SDS011;4483;48.622;9.230;2023-06-22T11:12:32;8.10;;;5.20;;
8893;SDS011;4483;48.622;9.230;2023-06-22T11:14:59;10.38;;;5.13;;
8893;SDS011;4483;48.622;9.230;2023-06-22T11:17:26;10.63;;;4.50;;
8893;SDS011;4483;48.622;9.230;2023-06-22T11:19:52;9.98;;;4.97;;
8893;SDS011;4483;48.622;9.230;2023-06-22T11:22:19;10.07;;;5.18;;
8893;SDS011;4483;48.622;9.230;2023-06-22T11:24:45;12.98;;;4.93;;
8893;SDS011;4483;48.622;9.230;2023-06-22T11:27:13;9.80;;;4.57;;
8893;SDS011;4483;48.622;9.230;2023-06-22T11:29:40;9.10;;;4.88;;
8893;SDS011;4483;48.622;9.230;2023-06-22T11:32:07;15.02;;;5.25;;
8893;SDS011;4483;48.622;9.230;2023-06-22T11:34:33;7.75;;;4.78;;
8893;SDS011;4483;48.622;9.230;2023-06-22T11:37:00;9.00;;;4.95;;
8893;SDS011;4483;48.622;9.230;2023-06-22T11:39:27;9.23;;;4.82;;
8893;SDS011;4483;48.622;9.230;2023-06-22T11:41:53;7.00;;;4.70;;
8893;SDS011;4483;48.622;9.230;2023-06-22T11:44:21;7.35;;;4.53;;
8893;SDS011;4483;48.622;9.230;2023-06-22T11:46:48;11.07;;;4.78;;
8893;SDS011;4483;48.622;9.230;2023-06-22T11:49:15;7.35;;;4.70;;
8893;SDS011;4483;48.622;9.230;2023-06-22T11:51:41;6.30;;;4.80;;
8893;SDS011;4483;48.622;9.230;2023-06-22T11:54:08;11.65;;;4.88;;
8893;SDS011;4483;48.622;9.230;2023-06-22T11:56:34;9.48;;;4.90;;
8893;SDS011;4483;48.622;9.230;2023-06-22T11:59:01;7.95;;;4.93;;
8893;SDS011;4483;48.622;9.230;2023-06-22T12:01:29;12.80;;;5.10;;
8893;SDS011;4483;48.622;9.230;2023-06-22T12:03:58;8.52;;;4.93;;
8893;SDS011;4483;48.622;9.230;2023-06-22T12:06:25;8.75;;;5.00;;
8893;SDS011;4483;48.622;9.230;2023-06-22T12:08:51;11.63;;;5.22;;
8893;SDS011;4483;48.622;9.230;2023-06-22T12:11:18;6.07;;;4.55;;
8893;SDS011;4483;48.622;9.230;2023-06-22T12:13:45;10.20;;;4.85;;
8893;SDS011;4483;48.622;9.230;2023-06-22T12:16:11;8.50;;;5.50;;
8893;SDS011;4483;48.622;9.230;2023-06-22T12:18:39;7.70;;;5.50;;
8893;SDS011;4483;48.622;9.230;2023-06-22T12:21:06;11.60;;;4.50;;
8893;SDS011;4483;48.622;9.230;2023-06-22T12:23:33;10.25;;;5.03;;
8893;SDS011;4483;48.622;9.230;2023-06-22T12:25:59;8.70;;;4.82;;
8893;SDS011;4483;48.622;9.230;2023-06-22T12:28:26;13.55;;;5.28;;
8893;SDS011;4483;48.622;9.230;2023-06-22T12:30:53;8.68;;;4.78;;
8893;SDS011;4483;48.622;9.230;2023-06-22T12:33:20;8.25;;;4.30;;
8893;SDS011;4483;48.622;9.230;2023-06-22T12:35:47;11.27;;;4.75;;
8893;SDS011;4483;48.622;9.230;2023-06-22T12:38:15;9.70;;;4.40;;
8893;SDS011;4483;48.622;9.230;2023-06-22T12:40:41;7.43;;;4.80;;
8893;SDS011;4483;48.622;9.230;2023-06-22T12:43:08;11.93;;;5.00;;
8893;SDS011;4483;48.622;9.230;2023-06-22T12:45:35;15.20;;;5.88;;
8893;SDS011;4483;48.622;9.230;2023-06-22T12:48:01;8.27;;;4.68;;
8893;SDS011;4483;48.622;9.230;2023-06-22T12:50:28;8.35;;;4.82;;
8893;SDS011;4483;48.622;9.230;2023-06-22T12:52:56;10.35;;;4.68;;
8893;SDS011;4483;48.622;9.230;2023-06-22T12:55:23;15.98;;;5.05;;
8893;SDS011;4483;48.622;9.230;2023-06-22T12:57:49;8.63;;;5.15;;
8893;SDS011;4483;48.622;9.230;2023-06-22T13:00:16;6.95;;;4.60;;
8893;SDS011;4483;48.622;9.230;2023-06-22T13:02:43;8.73;;;4.70;;
8893;SDS011;4483;48.622;9.230;2023-06-22T13:05:10;14.60;;;4.68;;
8893;SDS011;4483;48.622;9.230;2023-06-22T13:07:36;8.10;;;4.57;;
8893;SDS011;4483;48.622;9.230;2023-06-22T13:10:05;12.18;;;4.57;;
8893;SDS011;4483;48.622;9.230;2023-06-22T13:12:33;16.40;;;5.00;;
8893;SDS011;4483;48.622;9.230;2023-06-22T13:14:59;8.57;;;4.50;;
8893;SDS011;4483;48.622;9.230;2023-06-22T13:17:28;9.07;;;4.65;;
8893;SDS011;4483;48.622;9.230;2023-06-22T13:19:54;13.02;;;4.90;;
8893;SDS011;4483;48.622;9.230;2023-06-22T13:22:28;7.57;;;4.20;;
8893;SDS011;4483;48.622;9.230;2023-06-22T13:24:55;8.35;;;4.82;;
8893;SDS011;4483;48.622;9.230;2023-06-22T13:27:23;12.38;;;4.97;;
8893;SDS011;4483;48.622;9.230;2023-06-22T13:29:50;10.95;;;4.80;;
8893;SDS011;4483;48.622;9.230;2023-06-22T13:32:17;9.48;;;4.70;;
8893;SDS011;4483;48.622;9.230;2023-06-22T13:34:44;13.75;;;5.25;;
8893;SDS011;4483;48.622;9.230;2023-06-22T13:37:11;9.05;;;4.40;;
8893;SDS011;4483;48.622;9.230;2023-06-22T13:39:37;7.78;;;4.68;;
8893;SDS011;4483;48.622;9.230;2023-06-22T13:42:04;15.88;;;5.07;;
8893;SDS011;4483;48.622;9.230;2023-06-22T13:44:33;9.55;;;4.60;;
8893;SDS011;4483;48.622;9.230;2023-06-22T13:46:59;10.32;;;4.40;;
8893;SDS011;4483;48.622;9.230;2023-06-22T13:49:26;8.95;;;4.47;;
8893;SDS011;4483;48.622;9.230;2023-06-22T13:51:53;7.15;;;4.97;;
8893;SDS011;4483;48.622;9.230;2023-06-22T13:54:19;10.82;;;5.13;;
8893;SDS011;4483;48.622;9.230;2023-06-22T13:56:46;7.68;;;4.97;;
8893;SDS011;4483;48.622;9.230;2023-06-22T13:59:13;13.82;;;5.18;;
8893;SDS011;4483;48.622;9.230;2023-06-22T14:01:41;10.27;;;4.40;;
8893;SDS011;4483;48.622;9.230;2023-06-22T14:04:08;13.25;;;5.45;;
8893;SDS011;4483;48.622;9.230;2023-06-22T14:06:35;12.40;;;4.90;;
8893;SDS011;4483;48.622;9.230;2023-06-22T14:09:01;13.25;;;4.82;;
8893;SDS011;4483;48.622;9.230;2023-06-22T14:11:28;8.68;;;4.45;;
8893;SDS011;4483;48.622;9.230;2023-06-22T14:13:55;6.03;;;4.30;;
8893;SDS011;4483;48.622;9.230;2023-06-22T14:16:21;13.85;;;4.80;;
8893;SDS011;4483;48.622;9.230;2023-06-22T14:18:49;12.40;;;4.07;;
8893;SDS011;4483;48.622;9.230;2023-06-22T14:21:16;14.30;;;5.18;;
8893;SDS011;4483;48.622;9.230;2023-06-22T14:23:44;10.13;;;4.45;;
8893;SDS011;4483;48.622;9.230;2023-06-22T14:26:14;13.23;;;5.38;;
8893;SDS011;4483;48.622;9.230;2023-06-22T14:28:42;9.38;;;4.95;;
8893;SDS011;4483;48.622;9.230;2023-06-22T14:31:12;10.43;;;5.30;;
8893;SDS011;4483;48.622;9.230;2023-06-22T14:33:39;7.75;;;5.28;;
8893;SDS011;4483;48.622;9.230;2023-06-22T14:36:07;11.27;;;4.97;;
8893;SDS011;4483;48.622;9.230;2023-06-22T14:38:33;16.63;;;5.72;;
8893;SDS011;4483;48.622;9.230;2023-06-22T14:41:00;10.05;;;5.20;;
8893;SDS011;4483;48.622;9.230;2023-06-22T14:43:26;9.20;;;4.78;;
8893;SDS011;4483;48.622;9.230;2023-06-22T14:45:53;9.45;;;4.68;;
8893;SDS011;4483;48.622;9.230;2023-06-22T14:48:20;11.50;;;4.78;;
8893;SDS011;4483;48.622;9.230;2023-06-22T14:50:46;9.18;;;4.68;;
8893;SDS011;4483;48.622;9.230;2023-06-22T14:53:14;7.95;;;4.93;;
8893;SDS011;4483;48.622;9.230;2023-06-22T14:55:41;11.65;;;5.22;;
8893;SDS011;4483;48.622;9.230;2023-06-22T14:58:09;11.75;;;5.40;;
8893;SDS011;4483;48.622;9.230;2023-06-22T15:00:36;12.30;;;5.25;;
8893;SDS011;4483;48.622;9.230;2023-06-22T15:03:03;8.85;;;4.70;;
8893;SDS011;4483;48.622;9.230;2023-06-22T15:05:31;10.55;;;4.70;;
8893;SDS011;4483;48.622;9.230;2023-06-22T15:07:58;12.95;;;4.97;;
8893;SDS011;4483;48.622;9.230;2023-06-22T15:10:26;11.43;;;4.75;;
8893;SDS011;4483;48.622;9.230;2023-06-22T15:12:53;9.65;;;4.70;;
8893;SDS011;4483;48.622;9.230;2023-06-22T15:15:19;8.70;;;4.57;;